Time;durP1;ratioP1;P1;durP2;ratioP2;P2;SDS_P1;SDS_P2;PMS_P1;PMS_P2;Temp;Humidity;BMP_temperature;BMP_pressure;BME280_temperature;BME280_humidity;BME280_pressure;Samples;Min_cycle;Max_cycle;Signal;HPM_P1;HPM_P2
2021/05/29 00:00:48;;;;;;;6.18;1.55;;;13.50;54.20;;;;;;5034539;28;20025;-67
2021/05/29 00:03:16;;;;;;;7.63;1.52;;;13.70;53.00;;;;;;5033804;28;20541;-71
2021/05/29 00:05:43;;;;;;;8.15;1.10;;;13.70;52.70;;;;;;5020210;28;20121;-72
2021/05/29 00:08:11;;;;;;;5.10;1.35;;;13.70;52.80;;;;;;5029642;28;20138;-70
2021/05/29 00:10:41;;;;;;;4.90;1.00;;;13.70;52.70;;;;;;5027467;28;20438;-68
2021/05/29 00:13:10;;;;;;;9.10;1.45;;;13.90;52.70;;;;;;5030876;28;20191;-69
2021/05/29 00:15:38;;;;;;;5.93;1.60;;;13.80;52.10;;;;;;5034389;28;20029;-66
2021/05/29 00:18:07;;;;;;;3.17;1.65;;;13.70;52.20;;;;;;5030783;28;20017;-69
2021/05/29 00:20:35;;;;;;;3.63;1.33;;;13.80;55.60;;;;;;5027798;28;20033;-67
2021/05/29 00:23:02;;;;;;;5.28;1.20;;;14.10;56.30;;;;;;5023869;28;20527;-69
2021/05/29 00:25:29;;;;;;;5.85;1.20;;;14.40;52.30;;;;;;5043232;28;20121;-74
2021/05/29 00:27:56;;;;;;;12.38;1.67;;;14.30;53.60;;;;;;5028640;28;20576;-70
2021/05/29 00:30:23;;;;;;;5.50;1.25;;;14.50;51.90;;;;;;5029149;28;20022;-66
2021/05/29 00:32:50;;;;;;;7.68;1.40;;;14.30;52.80;;;;;;5036162;28;20055;-71
2021/05/29 00:35:17;;;;;;;4.10;1.25;;;14.30;52.80;;;;;;5033775;28;20457;-67
2021/05/29 00:37:45;;;;;;;4.22;1.00;;;14.40;52.00;;;;;;5027930;28;20581;-65
2021/05/29 00:40:13;;;;;;;6.03;1.38;;;14.50;53.80;;;;;;5029906;28;20439;-67
2021/05/29 00:42:40;;;;;;;5.63;1.20;;;14.80;51.40;;;;;;5033517;28;20037;-67
2021/05/29 00:45:08;;;;;;;2.85;1.00;;;14.80;51.60;;;;;;5019701;28;20720;-71
2021/05/29 00:47:36;;;;;;;4.22;1.08;;;14.80;51.30;;;;;;5030900;28;20091;-70
2021/05/29 00:50:09;;;;;;;6.85;1.40;;;14.80;50.60;;;;;;5027605;28;20047;-66
2021/05/29 00:52:36;;;;;;;5.57;1.40;;;14.80;51.70;;;;;;5027877;28;20134;-71
2021/05/29 00:55:10;;;;;;;6.28;1.40;;;14.90;51.10;;;;;;5025545;28;20028;-66
2021/05/29 00:57:55;;;;;;;6.43;1.33;;;14.90;51.00;;;;;;5027789;28;20029;-65
2021/05/29 01:00:24;;;;;;;2.85;0.88;;;15.00;51.40;;;;;;5027349;28;20502;-69
2021/05/29 01:02:51;;;;;;;2.65;0.95;;;15.00;50.60;;;;;;5027447;28;20033;-69
2021/05/29 01:05:20;;;;;;;6.78;1.42;;;15.00;51.00;;;;;;5037880;23;20139;-72
2021/05/29 01:07:52;;;;;;;3.53;1.13;;;15.20;50.40;;;;;;5029532;28;20041;-66
2021/05/29 01:10:24;;;;;;;3.63;1.27;;;15.30;50.30;;;;;;5023045;28;20033;-66
2021/05/29 01:12:53;;;;;;;5.63;2.03;;;15.20;50.50;;;;;;5035031;28;20021;-69
2021/05/29 01:15:22;;;;;;;2.88;1.10;;;15.20;50.20;;;;;;5026508;28;20112;-68
2021/05/29 01:17:49;;;;;;;2.95;1.27;;;15.30;50.30;;;;;;5029107;28;20025;-64
2021/05/29 01:20:17;;;;;;;11.82;2.72;;;15.30;49.80;;;;;;5027214;28;20026;-69
2021/05/29 01:22:47;;;;;;;6.28;1.35;;;15.20;50.60;;;;;;5034387;28;20462;-71
2021/05/29 01:25:24;;;;;;;3.67;1.30;;;15.50;50.60;;;;;;5027415;28;20034;-71
2021/05/29 01:28:16;;;;;;;4.88;1.83;;;15.70;50.40;;;;;;5027381;28;20477;-66
2021/05/29 01:30:53;;;;;;;3.97;1.00;;;15.90;51.10;;;;;;5019707;28;20041;-70
2021/05/29 01:33:32;;;;;;;3.83;1.00;;;15.70;50.30;;;;;;5033084;28;20355;-73
2021/05/29 01:36:04;;;;;;;5.38;1.20;;;15.80;51.60;;;;;;5031086;28;20036;-65
2021/05/29 01:38:32;;;;;;;7.18;1.27;;;15.90;50.00;;;;;;5033094;28;20026;-69
2021/05/29 01:41:11;;;;;;;5.78;1.67;;;15.80;49.40;;;;;;5031342;28;20044;-67
2021/05/29 01:43:40;;;;;;;2.80;0.93;;;15.80;49.30;;;;;;5031751;28;20025;-70
2021/05/29 01:46:09;;;;;;;3.63;1.20;;;15.90;50.00;;;;;;5030316;28;20386;-73
2021/05/29 01:48:43;;;;;;;4.95;1.23;;;16.10;49.70;;;;;;5036091;28;20551;-67
2021/05/29 01:51:11;;;;;;;5.18;1.00;;;16.20;50.00;;;;;;5038845;28;20039;-69
2021/05/29 01:53:38;;;;;;;2.97;1.20;;;16.30;49.50;;;;;;5032119;28;20037;-69
2021/05/29 01:56:06;;;;;;;7.03;1.63;;;16.60;50.00;;;;;;5030799;28;20525;-71
2021/05/29 01:58:35;;;;;;;4.28;1.30;;;16.60;50.80;;;;;;5030685;28;20406;-69
2021/05/29 02:01:04;;;;;;;4.30;1.00;;;16.70;48.90;;;;;;5032501;28;20433;-73
2021/05/29 02:03:31;;;;;;;4.25;1.50;;;16.70;48.40;;;;;;5033245;28;20188;-70
2021/05/29 02:05:58;;;;;;;4.30;1.20;;;16.60;49.50;;;;;;5039045;28;20548;-75
2021/05/29 02:08:25;;;;;;;5.45;1.38;;;16.60;48.60;;;;;;5030714;28;20124;-73
2021/05/29 02:10:52;;;;;;;5.45;1.25;;;16.60;48.60;;;;;;5030123;28;20032;-74
2021/05/29 02:13:26;;;;;;;4.75;1.38;;;16.60;48.70;;;;;;5028257;28;20112;-71
2021/05/29 02:15:53;;;;;;;7.60;1.73;;;16.60;51.20;;;;;;5029204;28;20045;-72
2021/05/29 02:18:21;;;;;;;3.25;1.40;;;16.60;50.00;;;;;;5030482;28;20091;-69
2021/05/29 02:20:53;;;;;;;5.18;1.30;;;16.40;49.00;;;;;;5031276;28;20136;-69
2021/05/29 02:23:22;;;;;;;2.88;1.27;;;16.40;49.70;;;;;;5031800;28;20021;-73
2021/05/29 02:25:50;;;;;;;2.22;1.13;;;16.70;48.90;;;;;;5029964;28;20026;-69
2021/05/29 02:28:19;;;;;;;1.92;0.85;;;16.90;48.00;;;;;;5029413;28;20044;-73
2021/05/29 02:30:50;;;;;;;6.28;1.55;;;17.20;48.40;;;;;;5030756;28;20025;-72
2021/05/29 02:33:18;;;;;;;5.53;1.40;;;17.40;48.60;;;;;;5027827;28;20643;-72
2021/05/29 02:35:45;;;;;;;2.63;1.00;;;17.60;46.90;;;;;;5030008;28;20032;-74
2021/05/29 02:38:12;;;;;;;3.25;1.50;;;17.20;47.30;;;;;;5029658;28;20017;-68
2021/05/29 02:40:40;;;;;;;3.90;1.20;;;17.10;47.80;;;;;;5028384;28;20030;-76
2021/05/29 02:43:07;;;;;;;2.42;1.20;;;17.10;47.30;;;;;;5028937;28;20036;-72
2021/05/29 02:45:39;;;;;;;2.03;0.95;;;17.10;49.30;;;;;;5029600;28;20032;-68
2021/05/29 02:48:14;;;;;;;3.87;1.13;;;17.30;48.50;;;;;;5028162;28;20093;-74
2021/05/29 02:50:42;;;;;;;2.97;1.50;;;17.60;47.60;;;;;;5030601;28;20279;-70
2021/05/29 02:53:11;;;;;;;4.00;1.20;;;17.70;47.80;;;;;;5029501;28;20099;-68
2021/05/29 02:55:39;;;;;;;4.00;1.40;;;17.90;46.70;;;;;;5027267;28;20029;-72
2021/05/29 02:58:07;;;;;;;6.68;1.20;;;18.20;46.00;;;;;;5027246;28;20030;-68
2021/05/29 03:00:40;;;;;;;6.55;1.33;;;18.40;45.00;;;;;;5030921;28;20035;-73
2021/05/29 03:03:09;;;;;;;;;;;18.10;45.90;;;;;;5028508;28;20061;-67
2021/05/29 03:05:40;;;;;;;4.18;1.52;;;17.70;46.90;;;;;;5029164;28;19920;-72
2021/05/29 03:08:08;;;;;;;2.90;1.58;;;17.50;48.60;;;;;;5027920;28;20397;-74
2021/05/29 03:10:35;;;;;;;4.20;1.83;;;17.20;48.90;;;;;;5021522;28;20104;-69
2021/05/29 03:13:02;;;;;;;3.60;1.20;;;17.10;49.40;;;;;;5028479;28;20026;-68
2021/05/29 03:15:29;;;;;;;4.22;1.40;;;17.10;48.50;;;;;;5026677;28;20041;-74
2021/05/29 03:17:56;;;;;;;3.90;1.45;;;17.30;48.60;;;;;;5006179;28;20053;-66
2021/05/29 03:20:26;;;;;;;3.88;1.23;;;17.20;48.20;;;;;;5025596;28;20021;-73
2021/05/29 03:22:54;;;;;;;4.13;1.20;;;17.50;47.60;;;;;;5029155;28;20029;-69
2021/05/29 03:25:21;;;;;;;3.17;1.23;;;17.80;47.30;;;;;;5028429;28;20199;-68
2021/05/29 03:27:50;;;;;;;3.58;1.20;;;17.70;46.30;;;;;;5030740;28;20036;-71
2021/05/29 03:30:19;;;;;;;5.32;1.38;;;17.80;46.90;;;;;;5026836;28;20060;-68
2021/05/29 03:32:47;;;;;;;5.65;1.42;;;17.50;46.70;;;;;;5028195;28;20021;-69
2021/05/29 03:35:14;;;;;;;4.25;1.23;;;17.40;48.50;;;;;;5028314;28;20021;-69
2021/05/29 03:37:42;;;;;;;3.33;0.95;;;16.90;48.50;;;;;;5027072;28;20112;-70
2021/05/29 03:40:10;;;;;;;3.85;1.42;;;16.80;49.50;;;;;;5026116;28;20431;-67
2021/05/29 03:42:38;;;;;;;2.28;0.90;;;16.80;48.90;;;;;;5027030;28;20026;-69
2021/05/29 03:45:12;;;;;;;2.60;1.05;;;16.80;49.50;;;;;;5027221;28;20075;-71
2021/05/29 03:47:40;;;;;;;5.90;1.08;;;16.80;50.60;;;;;;5025040;28;20029;-69
2021/05/29 03:50:09;;;;;;;2.70;0.80;;;16.90;49.00;;;;;;5025241;28;20033;-69
2021/05/29 03:52:36;;;;;;;2.63;1.20;;;16.90;48.60;;;;;;5027997;28;20025;-71
2021/05/29 03:55:04;;;;;;;4.68;0.80;;;17.10;48.60;;;;;;4327233;28;9999919;-69
2021/05/29 03:57:31;;;;;;;4.95;2.15;;;16.80;49.20;;;;;;5023623;28;20022;-70
2021/05/29 03:59:58;;;;;;;6.30;1.40;;;16.90;50.40;;;;;;5024186;28;20025;-67
2021/05/29 04:02:25;;;;;;;5.43;1.13;;;17.10;48.80;;;;;;5023520;28;20324;-66
2021/05/29 04:04:52;;;;;;;4.45;0.98;;;16.90;49.00;;;;;;5023893;28;20041;-66
2021/05/29 04:07:21;;;;;;;2.92;1.00;;;16.80;48.80;;;;;;5023796;28;20026;-67
2021/05/29 04:09:48;;;;;;;2.97;0.80;;;16.80;48.90;;;;;;5023829;28;20017;-70
2021/05/29 04:12:15;;;;;;;3.35;0.90;;;16.70;49.50;;;;;;5023356;28;20029;-64
2021/05/29 04:14:42;;;;;;;1.60;0.90;;;16.80;50.60;;;;;;5023365;28;20037;-69
2021/05/29 04:17:11;;;;;;;6.05;0.80;;;16.80;50.30;;;;;;5023331;28;20423;-71
2021/05/29 04:19:38;;;;;;;2.45;0.77;;;16.90;50.20;;;;;;5022719;28;20033;-71
2021/05/29 04:22:05;;;;;;;2.55;0.80;;;16.70;50.00;;;;;;5021609;28;20044;-73
2021/05/29 04:24:33;;;;;;;2.55;1.02;;;16.80;50.40;;;;;;5023826;28;20037;-68
2021/05/29 04:27:01;;;;;;;3.95;0.80;;;16.70;49.60;;;;;;5019464;28;20507;-72
2021/05/29 04:29:28;;;;;;;2.05;0.65;;;16.50;49.70;;;;;;5022547;28;20123;-66
2021/05/29 04:31:55;;;;;;;3.83;0.73;;;16.40;50.00;;;;;;5021289;28;20535;-70
2021/05/29 04:34:22;;;;;;;3.10;0.82;;;16.30;50.40;;;;;;5022990;28;20060;-72
2021/05/29 04:36:49;;;;;;;3.55;0.80;;;16.20;51.40;;;;;;5022680;28;20025;-72
2021/05/29 04:39:16;;;;;;;2.10;0.68;;;16.20;51.50;;;;;;5021738;28;20057;-71
2021/05/29 04:41:43;;;;;;;1.30;0.50;;;16.40;50.90;;;;;;5021810;28;20037;-73
2021/05/29 04:44:10;;;;;;;1.63;0.65;;;16.50;50.80;;;;;;4675445;28;9999986;-71
2021/05/29 04:46:39;;;;;;;2.67;0.95;;;16.40;50.30;;;;;;5019801;28;20048;-71
2021/05/29 04:49:07;;;;;;;2.60;0.60;;;16.40;50.20;;;;;;5019060;28;20029;-70
2021/05/29 04:51:34;;;;;;;1.85;0.70;;;16.20;50.50;;;;;;5025404;28;20029;-68
2021/05/29 04:54:01;;;;;;;2.65;0.80;;;16.20;50.90;;;;;;5016457;28;20026;-70
2021/05/29 04:56:31;;;;;;;0.70;0.50;;;16.20;50.90;;;;;;5017040;28;20637;-73
2021/05/29 04:58:58;;;;;;;2.75;0.68;;;16.20;50.80;;;;;;5015122;28;20627;-73
2021/05/29 05:01:29;;;;;;;3.22;0.60;;;16.10;50.70;;;;;;5019272;28;20045;-72
2021/05/29 05:03:56;;;;;;;3.30;0.68;;;16.00;50.90;;;;;;5018192;28;20061;-73
2021/05/29 05:06:23;;;;;;;3.72;1.55;;;15.90;51.40;;;;;;5020758;28;20049;-69
2021/05/29 05:08:51;;;;;;;2.10;1.13;;;16.00;52.00;;;;;;5022373;28;20025;-72
2021/05/29 05:11:18;;;;;;;2.45;0.80;;;16.00;51.60;;;;;;5021360;28;20090;-68
2021/05/29 05:13:46;;;;;;;2.90;1.02;;;16.00;51.80;;;;;;5023230;28;20029;-70
2021/05/29 05:16:17;;;;;;;2.42;0.95;;;16.00;51.60;;;;;;5022119;28;20037;-67
2021/05/29 05:18:44;;;;;;;1.67;0.60;;;15.90;52.10;;;;;;5022175;28;20479;-66
2021/05/29 05:21:12;;;;;;;2.30;0.70;;;15.80;52.10;;;;;;5023750;28;20037;-70
2021/05/29 05:23:39;;;;;;;2.00;0.60;;;15.70;52.40;;;;;;5022114;28;20489;-70
2021/05/29 05:26:06;;;;;;;2.65;0.88;;;15.60;52.70;;;;;;5023228;28;20042;-68
2021/05/29 05:28:33;;;;;;;4.38;1.45;;;15.60;53.00;;;;;;5029351;28;20355;-71
2021/05/29 05:31:03;;;;;;;2.72;1.45;;;15.60;52.30;;;;;;5026434;28;20139;-66
2021/05/29 05:33:33;;;;;;;1.88;0.60;;;15.60;52.40;;;;;;5023271;28;20120;-70
2021/05/29 05:36:01;;;;;;;2.17;0.80;;;15.50;52.60;;;;;;5022456;28;20034;-69
2021/05/29 05:38:28;;;;;;;1.77;0.63;;;15.60;53.00;;;;;;5022550;28;20178;-71
2021/05/29 05:40:55;;;;;;;2.25;0.73;;;15.60;52.60;;;;;;5022742;28;20128;-67
2021/05/29 05:43:22;;;;;;;2.95;1.00;;;15.50;52.50;;;;;;5020257;28;20141;-66
2021/05/29 05:45:48;;;;;;;1.73;0.63;;;15.40;52.70;;;;;;5037075;28;20076;-71
2021/05/29 05:48:15;;;;;;;2.58;0.73;;;15.40;52.90;;;;;;5030060;28;20043;-69
2021/05/29 05:50:53;;;;;;;1.65;0.70;;;15.40;53.80;;;;;;5025347;28;20021;-68
2021/05/29 05:53:23;;;;;;;0.47;0.38;;;15.30;53.20;;;;;;5026262;28;20183;-70
2021/05/29 05:55:59;;;;;;;2.17;0.70;;;15.20;53.30;;;;;;5022483;28;20025;-67
2021/05/29 05:58:27;;;;;;;5.35;1.02;;;15.10;54.00;;;;;;5030570;28;20036;-69
2021/05/29 06:00:54;;;;;;;2.13;0.70;;;15.00;53.60;;;;;;5024838;28;20545;-66
2021/05/29 06:03:22;;;;;;;2.22;0.82;;;15.00;54.00;;;;;;5031351;28;20030;-67
2021/05/29 06:05:49;;;;;;;1.50;0.77;;;15.00;54.30;;;;;;5024797;28;20045;-71
2021/05/29 06:08:18;;;;;;;2.38;0.80;;;15.00;54.50;;;;;;5018681;28;20456;-71
2021/05/29 06:10:49;;;;;;;0.98;0.50;;;15.00;54.50;;;;;;5025305;28;20050;-68
2021/05/29 06:13:32;;;;;;;2.03;1.13;;;14.90;54.30;;;;;;5023910;28;20029;-69
2021/05/29 06:19:46;;;;;;;3.72;0.82;;;14.80;54.40;;;;;;5023017;28;20033;-72
2021/05/29 06:21:48;;;;;;;2.80;0.60;;;14.70;54.70;;;;;;5014776;28;20041;-70
2021/05/29 06:24:25;;;;;;;1.92;1.10;;;14.60;54.80;;;;;;5025524;28;20035;-68
2021/05/29 06:26:52;;;;;;;1.92;0.98;;;14.60;55.30;;;;;;5026193;28;20025;-70
2021/05/29 06:29:20;;;;;;;2.47;0.70;;;14.60;55.60;;;;;;5025681;28;20065;-71
2021/05/29 06:31:48;;;;;;;3.75;0.88;;;14.50;55.40;;;;;;5023182;28;20037;-74
2021/05/29 06:34:16;;;;;;;3.92;0.85;;;14.50;55.70;;;;;;5023885;28;20112;-67
2021/05/29 06:36:44;;;;;;;2.35;0.82;;;14.50;56.00;;;;;;5029327;28;20029;-68
2021/05/29 06:39:11;;;;;;;1.25;0.77;;;14.60;55.60;;;;;;5021857;28;20104;-69
2021/05/29 06:41:40;;;;;;;2.60;0.60;;;14.60;55.60;;;;;;5020607;28;20032;-66
2021/05/29 06:44:09;;;;;;;3.85;1.00;;;14.50;55.70;;;;;;5022925;28;20205;-69
2021/05/29 06:46:36;;;;;;;3.67;0.60;;;14.40;55.90;;;;;;5023303;28;20034;-69
2021/05/29 06:49:04;;;;;;;2.70;0.65;;;14.30;56.20;;;;;;5023428;28;20029;-69
2021/05/29 06:59:40;;;;;;;3.63;1.08;;;14.10;57.40;;;;;;5019750;28;20028;-69
2021/05/29 07:02:07;;;;;;;3.55;1.00;;;14.10;57.30;;;;;;5021680;28;20083;-68
2021/05/29 07:04:35;;;;;;;2.08;0.90;;;14.00;57.60;;;;;;5021150;28;20037;-69
2021/05/29 07:07:03;;;;;;;2.30;0.90;;;14.00;57.80;;;;;;5024269;28;20333;-69
2021/05/29 07:09:30;;;;;;;4.25;1.20;;;13.90;58.30;;;;;;5023719;28;20040;-73
2021/05/29 07:11:56;;;;;;;2.30;0.90;;;13.80;58.40;;;;;;5021458;28;20083;-72
2021/05/29 07:14:24;;;;;;;1.73;0.90;;;13.80;58.10;;;;;;5022895;28;20025;-67
2021/05/29 07:16:52;;;;;;;3.13;0.93;;;13.80;58.00;;;;;;5022497;28;20025;-69
2021/05/29 07:19:20;;;;;;;2.38;1.10;;;13.80;58.10;;;;;;5022677;28;20025;-71
2021/05/29 07:21:48;;;;;;;2.42;0.77;;;13.70;58.30;;;;;;5022033;28;20060;-69
2021/05/29 07:24:17;;;;;;;4.43;0.98;;;13.70;58.80;;;;;;5025168;28;20812;-68
2021/05/29 07:26:45;;;;;;;2.58;0.90;;;13.70;58.60;;;;;;5025423;28;20436;-69
2021/05/29 07:29:13;;;;;;;2.10;1.17;;;13.70;58.80;;;;;;5022396;28;20056;-67
2021/05/29 07:31:40;;;;;;;1.90;1.20;;;13.70;62.70;;;;;;5022373;28;20114;-70
2021/05/29 07:34:07;;;;;;;1.98;0.85;;;13.80;59.00;;;;;;5021548;28;20079;-69
2021/05/29 07:36:34;;;;;;;3.25;0.93;;;13.90;59.30;;;;;;5024432;28;20022;-68
2021/05/29 07:39:01;;;;;;;3.17;0.88;;;13.80;59.10;;;;;;5020423;28;20017;-72
2021/05/29 07:41:28;;;;;;;3.05;1.05;;;13.80;58.60;;;;;;5024532;28;20087;-71
2021/05/29 07:43:55;;;;;;;2.95;1.65;;;13.70;60.20;;;;;;5021195;28;20041;-68
2021/05/29 07:46:23;;;;;;;4.47;1.60;;;13.70;60.10;;;;;;5023080;28;20583;-71
2021/05/29 07:48:51;;;;;;;1.75;1.08;;;13.70;60.20;;;;;;5022777;28;20038;-71
2021/05/29 07:51:18;;;;;;;3.40;1.00;;;13.70;59.50;;;;;;5022526;28;20080;-69
2021/05/29 07:53:48;;;;;;;2.03;0.82;;;13.60;59.30;;;;;;5020922;28;20428;-68
2021/05/29 07:56:18;;;;;;;2.97;0.95;;;13.60;59.10;;;;;;5022328;28;20029;-71
2021/05/29 07:58:50;;;;;;;0.98;0.52;;;13.50;60.20;;;;;;5023633;28;20033;-68
2021/05/29 08:01:19;;;;;;;2.50;0.93;;;13.50;59.50;;;;;;5017399;28;20660;-66
2021/05/29 08:03:47;;;;;;;4.07;0.90;;;13.40;60.00;;;;;;5019510;28;20135;-69
2021/05/29 08:06:15;;;;;;;1.02;0.57;;;13.40;59.80;;;;;;5020798;28;20037;-67
2021/05/29 08:08:45;;;;;;;4.88;1.10;;;13.40;59.80;;;;;;5017807;28;20049;-68
2021/05/29 08:11:23;;;;;;;3.25;1.20;;;13.40;59.40;;;;;;5019979;28;20584;-68
2021/05/29 08:13:56;;;;;;;3.85;1.35;;;13.40;59.50;;;;;;5019174;28;20482;-67
2021/05/29 08:16:24;;;;;;;1.63;0.80;;;13.30;59.70;;;;;;5015170;28;20441;-66
2021/05/29 08:18:52;;;;;;;4.75;1.00;;;13.30;59.70;;;;;;5018701;28;20075;-66
2021/05/29 08:21:19;;;;;;;2.38;1.00;;;13.30;59.70;;;;;;5018502;28;20031;-68
2021/05/29 08:23:46;;;;;;;3.97;1.05;;;13.20;59.90;;;;;;5019886;28;20032;-68
2021/05/29 08:26:14;;;;;;;2.13;0.93;;;13.20;60.20;;;;;;5017661;28;20763;-66
2021/05/29 08:28:44;;;;;;;2.38;0.82;;;13.20;60.40;;;;;;5020204;28;20279;-66
2021/05/29 08:31:12;;;;;;;3.67;1.10;;;13.20;60.30;;;;;;5018553;28;20090;-67
2021/05/29 08:33:40;;;;;;;3.35;0.90;;;13.20;59.80;;;;;;5023901;28;20071;-70
2021/05/29 08:36:07;;;;;;;7.38;1.52;;;13.30;59.50;;;;;;5014951;28;20045;-69
2021/05/29 08:38:35;;;;;;;2.83;1.25;;;13.30;59.50;;;;;;5018647;28;20025;-70
2021/05/29 08:41:02;;;;;;;5.35;1.40;;;13.30;59.60;;;;;;5024957;28;20360;-68
2021/05/29 08:43:31;;;;;;;8.05;1.02;;;13.30;59.80;;;;;;5018786;28;20031;-70
2021/05/29 08:45:58;;;;;;;4.53;1.00;;;13.30;59.30;;;;;;5017051;28;20388;-69
2021/05/29 08:48:25;;;;;;;1.55;0.80;;;13.30;59.90;;;;;;5016941;28;20048;-70
2021/05/29 08:53:37;;;;;;;2.05;0.85;;;13.20;59.70;;;;;;5016044;28;20142;-68
2021/05/29 08:56:04;;;;;;;3.15;1.20;;;13.20;60.00;;;;;;5020215;28;20398;-68
2021/05/29 08:58:31;;;;;;;3.88;1.10;;;13.20;60.00;;;;;;5020267;28;20079;-69
2021/05/29 09:01:01;;;;;;;4.95;1.35;;;13.20;59.90;;;;;;5018912;28;20044;-65
2021/05/29 09:03:50;;;;;;;2.53;1.20;;;13.10;60.20;;;;;;5021364;28;20087;-66
2021/05/29 09:06:40;;;;;;;3.30;1.05;;;13.10;60.00;;;;;;5038223;28;20373;-67
2021/05/29 09:09:10;;;;;;;4.70;1.10;;;13.10;59.80;;;;;;5023558;28;20402;-70
2021/05/29 09:11:56;;;;;;;6.97;1.20;;;13.10;60.00;;;;;;5020638;28;20033;-73
2021/05/29 09:14:32;;;;;;;3.58;1.45;;;13.10;60.40;;;;;;5019462;28;20555;-71
2021/05/29 09:17:10;;;;;;;4.00;1.52;;;13.10;60.80;;;;;;5017924;28;20030;-68
2021/05/29 09:20:07;;;;;;;1.92;0.75;;;13.00;60.70;;;;;;5021221;28;20029;-69
2021/05/29 09:22:53;;;;;;;2.97;1.27;;;13.00;60.40;;;;;;5024432;28;20143;-67
2021/05/29 09:25:24;;;;;;;1.88;0.73;;;12.90;60.30;;;;;;5034603;28;20045;-68
2021/05/29 09:28:04;;;;;;;1.90;1.10;;;12.90;60.70;;;;;;5020337;28;20084;-68
2021/05/29 09:30:51;;;;;;;1.90;0.60;;;13.00;60.60;;;;;;5016480;28;20358;-68
2021/05/29 09:33:23;;;;;;;2.00;1.38;;;12.90;60.40;;;;;;5021337;28;20611;-66
2021/05/29 09:36:06;;;;;;;2.47;0.90;;;12.90;60.10;;;;;;5021597;28;20550;-66
2021/05/29 09:38:37;;;;;;;3.03;0.88;;;12.80;60.30;;;;;;5014703;28;20053;-68
2021/05/29 09:41:07;;;;;;;2.35;0.95;;;12.80;60.20;;;;;;5016111;28;20052;-68
2021/05/29 09:44:06;;;;;;;3.15;1.20;;;12.70;60.40;;;;;;5020963;28;20549;-69
2021/05/29 09:46:54;;;;;;;1.45;0.80;;;12.70;60.10;;;;;;5016748;28;20072;-70
2021/05/29 09:49:25;;;;;;;1.20;0.65;;;12.70;60.70;;;;;;5018712;28;20041;-71
2021/05/29 09:51:55;;;;;;;2.17;0.98;;;12.60;60.60;;;;;;5026029;28;20135;-70
2021/05/29 09:54:25;;;;;;;3.13;0.65;;;12.50;60.70;;;;;;5021979;28;20021;-70
2021/05/29 09:57:03;;;;;;;2.25;0.63;;;12.50;60.30;;;;;;5025627;28;20052;-76
2021/05/29 09:59:30;;;;;;;0.75;0.60;;;12.60;60.40;;;;;;5023717;28;20026;-74
2021/05/29 10:02:00;;;;;;;3.60;0.93;;;12.60;59.80;;;;;;5023838;28;20033;-74
2021/05/29 10:04:30;;;;;;;4.45;1.00;;;12.60;60.30;;;;;;5025764;28;20514;-70
2021/05/29 10:06:59;;;;;;;2.72;0.95;;;12.50;60.10;;;;;;5024762;28;20030;-71
2021/05/29 10:09:27;;;;;;;4.47;1.05;;;12.50;60.90;;;;;;5027465;28;20029;-70
2021/05/29 10:11:55;;;;;;;3.08;0.77;;;12.40;60.70;;;;;;5025620;28;20035;-71
2021/05/29 10:14:22;;;;;;;3.53;0.93;;;12.30;60.90;;;;;;5024866;28;20083;-73
2021/05/29 10:16:51;;;;;;;3.05;0.80;;;12.30;60.50;;;;;;5027695;28;20038;-67
2021/05/29 10:19:22;;;;;;;2.17;1.02;;;12.30;60.80;;;;;;5023325;28;20037;-73
2021/05/29 10:21:53;;;;;;;2.10;0.90;;;12.20;61.30;;;;;;5026529;28;20076;-72
2021/05/29 10:24:22;;;;;;;4.25;1.08;;;12.10;62.20;;;;;;5025723;28;20032;-69
2021/05/29 10:26:57;;;;;;;1.77;0.90;;;12.10;62.30;;;;;;5021758;28;20052;-72
2021/05/29 10:29:26;;;;;;;3.13;1.00;;;12.20;61.40;;;;;;5014302;28;20025;-68
2021/05/29 10:32:16;;;;;;;7.75;1.42;;;12.20;61.20;;;;;;5019128;28;20022;-73
2021/05/29 10:35:04;;;;;;;5.03;1.33;;;12.30;60.50;;;;;;5025192;28;20029;-73
2021/05/29 10:37:33;;;;;;;2.10;0.85;;;12.30;60.70;;;;;;5021172;28;20025;-68
2021/05/29 10:40:33;;;;;;;4.75;1.23;;;12.30;60.90;;;;;;5024319;28;20032;-67
2021/05/29 10:43:26;;;;;;;1.17;0.63;;;12.30;61.40;;;;;;5021024;28;20035;-65
2021/05/29 10:45:53;;;;;;;7.85;1.70;;;12.20;60.90;;;;;;5022545;28;20021;-66
2021/05/29 10:48:21;;;;;;;5.88;1.23;;;12.10;61.30;;;;;;5022530;28;20033;-70
2021/05/29 10:51:06;;;;;;;4.75;1.05;;;12.10;61.00;;;;;;5027126;28;21103;-73
2021/05/29 10:53:55;;;;;;;6.38;1.23;;;12.10;60.80;;;;;;5022594;28;20091;-72
2021/05/29 10:56:30;;;;;;;2.30;0.93;;;12.20;61.20;;;;;;5024389;28;20098;-70
2021/05/29 10:59:15;;;;;;;3.33;1.67;;;12.30;60.30;;;;;;5023169;28;20377;-70
2021/05/29 11:01:46;;;;;;;9.25;2.92;;;12.20;61.60;;;;;;5016297;28;20478;-70
2021/05/29 11:04:22;;;;;;;2.78;1.13;;;12.20;61.30;;;;;;5025509;28;20528;-66
2021/05/29 11:06:52;;;;;;;9.52;1.63;;;12.10;61.20;;;;;;5026753;28;20021;-70
2021/05/29 11:09:43;;;;;;;3.42;1.20;;;12.20;61.30;;;;;;5021281;28;20056;-69
2021/05/29 11:12:10;;;;;;;9.45;5.45;;;12.20;61.50;;;;;;5009033;28;20042;-67
2021/05/29 11:14:58;;;;;;;4.20;0.75;;;12.20;61.90;;;;;;5019628;28;21045;-68
2021/05/29 11:17:27;;;;;;;7.18;1.23;;;12.20;61.00;;;;;;5020221;28;20827;-66
2021/05/29 11:20:07;;;;;;;3.42;1.50;;;12.20;61.80;;;;;;5024090;28;20103;-70
2021/05/29 11:22:57;;;;;;;4.95;1.48;;;12.00;62.10;;;;;;5027454;28;20068;-73
2021/05/29 11:25:24;;;;;;;3.40;1.20;;;12.00;61.80;;;;;;5022177;28;20060;-68
2021/05/29 11:27:51;;;;;;;7.00;1.48;;;12.00;61.60;;;;;;5021516;28;20076;-71
2021/05/29 11:30:26;;;;;;;1.48;0.85;;;12.00;63.30;;;;;;5022111;28;20116;-65
2021/05/29 11:35:49;;;;;;;7.13;1.63;;;11.90;62.30;;;;;;5034259;28;20098;-71
2021/05/29 11:38:38;;;;;;;3.53;0.80;;;11.90;62.40;;;;;;5025583;28;20033;-66
2021/05/29 11:41:09;;;;;;;2.92;0.82;;;12.00;62.20;;;;;;5021194;28;20029;-71
2021/05/29 11:43:38;;;;;;;1.92;0.95;;;12.10;61.40;;;;;;5026634;28;20061;-70
2021/05/29 11:46:19;;;;;;;2.40;0.77;;;12.10;61.80;;;;;;5024390;28;20035;-69
2021/05/29 11:48:47;;;;;;;5.75;1.20;;;12.10;61.50;;;;;;5022853;28;20045;-65
2021/05/29 11:51:18;;;;;;;5.10;1.33;;;12.10;61.80;;;;;;5020007;28;20064;-66
2021/05/29 11:53:51;;;;;;;2.85;1.23;;;12.10;62.20;;;;;;5020631;28;20029;-66
2021/05/29 11:56:24;;;;;;;;;;;12.20;61.10;;;;;;5023722;28;20037;-66
2021/05/29 11:58:53;;;;;;;5.38;1.38;;;12.20;61.80;;;;;;5022722;28;19917;-67
2021/05/29 12:01:24;;;;;;;2.40;0.88;;;12.30;61.00;;;;;;5024409;28;20040;-69
2021/05/29 12:03:59;;;;;;;1.83;0.70;;;12.20;61.80;;;;;;5025337;28;20053;-71
2021/05/29 12:06:57;;;;;;;2.65;0.85;;;12.20;61.30;;;;;;5022023;28;20516;-65
2021/05/29 12:09:29;;;;;;;3.00;0.82;;;12.10;61.70;;;;;;5021333;28;20037;-69
2021/05/29 12:12:00;;;;;;;2.08;0.88;;;12.00;61.60;;;;;;5022955;28;20037;-68
2021/05/29 12:14:49;;;;;;;1.55;0.80;;;12.00;61.80;;;;;;5024730;28;20036;-73
2021/05/29 12:17:17;;;;;;;4.38;1.17;;;11.90;62.00;;;;;;5023743;28;20120;-65
2021/05/29 12:19:55;;;;;;;2.35;0.90;;;11.90;62.70;;;;;;5023211;28;20347;-68
2021/05/29 12:22:30;;;;;;;6.07;2.13;;;11.90;62.80;;;;;;5026810;28;20078;-69
2021/05/29 12:25:04;;;;;;;3.67;1.30;;;12.00;61.80;;;;;;5027552;28;20025;-68
2021/05/29 12:27:42;;;;;;;3.85;1.02;;;12.00;61.40;;;;;;5027593;28;20043;-70
2021/05/29 12:30:18;;;;;;;4.28;1.38;;;12.10;61.80;;;;;;5027017;28;20028;-70
2021/05/29 12:32:51;;;;;;;5.88;1.10;;;12.00;61.80;;;;;;5031039;28;20083;-68
2021/05/29 12:35:40;;;;;;;3.50;1.10;;;12.00;61.30;;;;;;5027230;28;20030;-67
2021/05/29 12:38:10;;;;;;;3.20;1.00;;;12.00;61.00;;;;;;5021458;28;20825;-75
2021/05/29 12:40:37;;;;;;;1.60;0.82;;;12.00;61.50;;;;;;5027879;28;20029;-69
2021/05/29 12:43:13;;;;;;;2.55;0.80;;;12.00;61.20;;;;;;5026718;28;20486;-70
2021/05/29 12:45:42;;;;;;;2.65;1.10;;;11.90;61.30;;;;;;5026222;28;20029;-69
2021/05/29 12:48:13;;;;;;;2.67;0.95;;;11.90;61.70;;;;;;5021020;28;20505;-70
2021/05/29 12:53:30;;;;;;;2.72;0.98;;;11.70;62.20;;;;;;5025014;28;20041;-70
2021/05/29 12:56:09;;;;;;;2.90;1.48;;;11.70;62.30;;;;;;5025273;28;20028;-70
2021/05/29 12:58:36;;;;;;;1.77;0.70;;;11.60;62.30;;;;;;5027215;28;20553;-69
2021/05/29 13:09:40;;;;;;;2.70;1.00;;;11.50;63.40;;;;;;5022953;28;20572;-69
2021/05/29 13:12:19;;;;;;;3.20;0.95;;;11.50;62.90;;;;;;5025750;28;20033;-69
2021/05/29 13:14:47;;;;;;;5.93;1.00;;;11.50;63.10;;;;;;5019785;28;20064;-69
2021/05/29 13:17:32;;;;;;;8.43;1.50;;;11.50;62.80;;;;;;5018772;28;20025;-70
2021/05/29 13:20:07;;;;;;;5.22;0.98;;;11.60;62.60;;;;;;5018890;28;20486;-69
2021/05/29 13:22:36;;;;;;;5.40;1.17;;;11.60;63.10;;;;;;5025348;28;20067;-69
2021/05/29 13:25:12;;;;;;;1.85;0.90;;;11.70;62.30;;;;;;5031978;28;20025;-69
2021/05/29 13:27:48;;;;;;;5.25;1.15;;;11.70;62.90;;;;;;5028761;28;20057;-69
2021/05/29 13:30:28;;;;;;;3.33;0.90;;;11.70;62.30;;;;;;5028182;28;20145;-69
2021/05/29 13:33:07;;;;;;;1.67;0.82;;;11.70;62.90;;;;;;5029776;28;20021;-69
2021/05/29 13:35:35;;;;;;;1.65;0.77;;;11.80;62.30;;;;;;5023744;28;20045;-69